createdAt,value
2022-07-29T00:02:28.189Z,21.94
2022-07-29T00:04:55.203Z,21.91
2022-07-29T00:07:22.014Z,21.97
2022-07-29T00:09:52.156Z,21.96
2022-07-29T00:12:25.331Z,21.87
2022-07-29T00:14:57.642Z,21.87
2022-07-29T00:17:26.002Z,21.81
2022-07-29T00:19:58.862Z,21.65
2022-07-29T00:22:25.780Z,21.64
2022-07-29T00:24:55.259Z,21.65
2022-07-29T00:27:22.288Z,21.66
2022-07-29T00:30:15.446Z,21.68
2022-07-29T00:32:42.447Z,21.53
2022-07-29T00:35:09.723Z,21.42
2022-07-29T00:37:36.838Z,21.47
2022-07-29T00:40:04.321Z,21.52
2022-07-29T00:42:31.319Z,21.44
2022-07-29T00:45:00.826Z,21.41
2022-07-29T00:47:27.733Z,21.43
2022-07-29T00:49:54.597Z,21.44
2022-07-29T00:52:21.588Z,21.34
2022-07-29T00:54:48.546Z,21.28
2022-07-29T00:57:15.711Z,21.19
2022-07-29T00:59:42.625Z,21.26
2022-07-29T01:02:09.690Z,21.26
2022-07-29T01:04:36.684Z,21.32
2022-07-29T01:07:05.200Z,21.34
2022-07-29T01:09:46.416Z,21.39
2022-07-29T01:12:22.684Z,21.32
2022-07-29T01:14:51.127Z,21.33
2022-07-29T01:17:24.132Z,21.28
2022-07-29T01:20:21.316Z,21.30
2022-07-29T01:23:20.561Z,21.22
2022-07-29T01:26:52.621Z,21.19
2022-07-29T01:29:38.686Z,21.14
2022-07-29T01:32:18.070Z,21.22
2022-07-29T01:35:11.400Z,21.35
2022-07-29T01:37:46.264Z,21.10
2022-07-29T01:40:41.730Z,20.90
2022-07-29T01:43:13.873Z,20.93
2022-07-29T01:45:49.017Z,20.90
2022-07-29T01:48:43.331Z,20.89
2022-07-29T01:51:18.041Z,20.88
2022-07-29T01:54:19.995Z,20.94
2022-07-29T01:56:51.937Z,20.76
2022-07-29T01:59:21.269Z,20.62
2022-07-29T02:01:50.682Z,20.70
2022-07-29T02:04:29.395Z,20.60
2022-07-29T02:07:02.730Z,20.77
2022-07-29T02:09:31.552Z,20.73
2022-07-29T02:12:01.310Z,20.75
2022-07-29T02:14:32.268Z,20.65
2022-07-29T02:17:01.663Z,20.63
2022-07-29T02:19:30.370Z,20.83
2022-07-29T02:21:59.728Z,20.75
2022-07-29T02:24:27.715Z,20.81
2022-07-29T02:26:57.238Z,20.95
2022-07-29T02:29:27.372Z,21.07
2022-07-29T02:31:55.613Z,21.17
2022-07-29T02:34:24.443Z,21.31
2022-07-29T02:36:56.756Z,21.16
2022-07-29T02:39:27.350Z,21.41
2022-07-29T02:42:02.357Z,21.38
2022-07-29T02:44:34.422Z,21.54
2022-07-29T02:47:41.900Z,21.55
2022-07-29T02:50:32.183Z,21.69
2022-07-29T02:53:03.902Z,21.53
2022-07-29T02:55:35.808Z,21.76
2022-07-29T02:58:09.754Z,22.02
2022-07-29T03:00:39.334Z,22.13
2022-07-29T03:03:12.241Z,22.04
2022-07-29T03:05:40.629Z,22.13
2022-07-29T03:08:11.444Z,22.00
2022-07-29T03:10:44.797Z,22.29
2022-07-29T03:13:13.532Z,23.05
2022-07-29T03:15:40.930Z,23.54
2022-07-29T03:18:08.559Z,24.74
2022-07-29T03:20:35.493Z,25.22
2022-07-29T03:23:02.503Z,25.55
2022-07-29T03:25:29.425Z,25.98
2022-07-29T03:27:56.351Z,25.28
2022-07-29T03:30:23.749Z,25.78
2022-07-29T03:32:52.696Z,26.76
2022-07-29T03:35:21.138Z,27.48
2022-07-29T03:37:50.803Z,27.78
2022-07-29T03:40:24.104Z,28.85
2022-07-29T03:42:54.916Z,29.04
2022-07-29T03:45:23.525Z,29.72
2022-07-29T03:48:00.629Z,30.45
2022-07-29T03:50:31.653Z,30.50
2022-07-29T03:52:59.276Z,30.64
2022-07-29T03:55:29.363Z,31.21
2022-07-29T03:58:22.895Z,32.09
2022-07-29T04:00:50.708Z,31.96
2022-07-29T04:03:17.640Z,32.02
2022-07-29T04:05:44.668Z,30.91
2022-07-29T04:08:11.605Z,29.72
2022-07-29T04:10:39.282Z,28.91
2022-07-29T04:13:06.527Z,28.56
2022-07-29T04:15:33.551Z,28.44
2022-07-29T04:18:00.722Z,27.85
2022-07-29T04:20:27.880Z,27.51
2022-07-29T04:22:54.668Z,26.96
2022-07-29T04:25:21.634Z,27.30
2022-07-29T04:27:48.485Z,26.70
2022-07-29T04:30:15.395Z,26.47
2022-07-29T04:32:44.404Z,26.15
2022-07-29T04:35:11.316Z,25.60
2022-07-29T04:37:38.309Z,25.38
2022-07-29T04:40:05.852Z,26.15
2022-07-29T04:42:32.693Z,26.18
2022-07-29T04:45:01.418Z,26.73
2022-07-29T04:47:28.309Z,27.29
2022-07-29T04:49:55.230Z,27.77
2022-07-29T04:52:22.033Z,28.15
2022-07-29T04:54:49.382Z,28.73
2022-07-29T04:57:16.246Z,28.50
2022-07-29T04:59:43.155Z,28.62
2022-07-29T05:02:38.784Z,28.61
2022-07-29T05:05:05.969Z,28.97
2022-07-29T05:07:47.280Z,28.65
2022-07-29T05:10:14.241Z,28.71
2022-07-29T05:12:41.060Z,28.37
2022-07-29T05:15:08.538Z,28.70
2022-07-29T05:17:35.358Z,28.66
2022-07-29T05:20:03.028Z,28.47
2022-07-29T05:22:29.908Z,28.21
2022-07-29T05:25:01.456Z,28.56
2022-07-29T05:27:30.147Z,28.84
2022-07-29T05:29:56.968Z,28.84
2022-07-29T05:32:23.888Z,28.15
2022-07-29T05:34:51.916Z,28.12
2022-07-29T05:37:20.972Z,28.18
2022-07-29T05:39:50.420Z,27.91
2022-07-29T05:42:17.839Z,28.00
2022-07-29T05:44:44.696Z,27.87
2022-07-29T05:47:11.544Z,27.73
2022-07-29T05:49:38.374Z,27.82
2022-07-29T05:52:05.876Z,27.80
2022-07-29T05:54:32.678Z,27.86
2022-07-29T05:56:59.508Z,27.87
2022-07-29T05:59:30.278Z,27.75
2022-07-29T06:01:57.777Z,27.91
2022-07-29T06:04:24.731Z,27.91
2022-07-29T06:06:57.645Z,27.55
2022-07-29T06:09:24.865Z,28.30
2022-07-29T06:11:51.690Z,27.45
2022-07-29T06:14:19.144Z,27.82
2022-07-29T06:16:47.312Z,27.45
2022-07-29T06:19:14.278Z,27.34
2022-07-29T06:21:45.236Z,27.54
2022-07-29T06:24:13.582Z,27.36
2022-07-29T06:26:41.771Z,27.05
2022-07-29T06:29:09.509Z,26.75
2022-07-29T06:31:36.320Z,27.02
2022-07-29T06:34:03.913Z,26.66
2022-07-29T06:36:31.845Z,26.19
2022-07-29T06:38:58.717Z,26.04
2022-07-29T06:41:26.340Z,26.16
2022-07-29T06:43:56.834Z,25.78
2022-07-29T06:46:29.185Z,25.69
2022-07-29T06:48:56.194Z,25.37
2022-07-29T06:51:24.197Z,25.45
2022-07-29T06:54:02.886Z,25.16
2022-07-29T06:56:39.434Z,24.96
2022-07-29T06:59:11.312Z,24.62
2022-07-29T07:01:47.459Z,25.14
2022-07-29T07:04:15.033Z,24.88
2022-07-29T07:06:42.233Z,24.53
2022-07-29T07:09:12.895Z,24.64
2022-07-29T07:11:41.031Z,24.90
2022-07-29T07:14:10.593Z,24.88
2022-07-29T07:16:40.164Z,24.65
2022-07-29T07:19:08.337Z,24.97
2022-07-29T07:21:55.487Z,25.06
2022-07-29T07:24:22.726Z,24.81
2022-07-29T07:26:49.664Z,25.01
2022-07-29T07:29:16.718Z,24.98
2022-07-29T07:31:43.726Z,24.44
2022-07-29T07:34:14.199Z,24.21
2022-07-29T07:36:41.417Z,24.39
2022-07-29T07:39:09.306Z,24.49
2022-07-29T07:42:08.725Z,24.37
2022-07-29T07:44:51.346Z,24.83
2022-07-29T07:47:22.761Z,24.69
2022-07-29T07:49:55.072Z,24.87
2022-07-29T07:52:23.055Z,24.39
2022-07-29T07:54:52.449Z,24.44
2022-07-29T07:57:24.980Z,24.57
2022-07-29T07:59:54.901Z,24.89
2022-07-29T08:02:22.004Z,24.78
2022-07-29T08:05:04.491Z,24.76
2022-07-29T08:07:38.831Z,24.74
2022-07-29T08:10:06.601Z,24.55
2022-07-29T08:12:33.661Z,24.72
2022-07-29T08:15:00.657Z,24.65
2022-07-29T08:17:27.662Z,24.57
2022-07-29T08:19:55.031Z,24.78
2022-07-29T08:22:21.925Z,24.79
2022-07-29T08:24:51.654Z,24.93
2022-07-29T08:27:42.479Z,25.47
2022-07-29T08:30:08.869Z,25.72
2022-07-29T08:33:04.997Z,25.56
2022-07-29T08:35:35.630Z,25.49
2022-07-29T08:38:32.659Z,25.22
2022-07-29T08:41:01.338Z,25.18
2022-07-29T08:43:34.333Z,25.42
2022-07-29T08:46:01.623Z,25.58
2022-07-29T08:48:28.549Z,25.64
2022-07-29T08:50:58.979Z,25.79
2022-07-29T08:53:29.231Z,25.34
2022-07-29T08:55:57.533Z,25.54
2022-07-29T08:58:26.500Z,26.04
2022-07-29T09:00:56.437Z,25.92
2022-07-29T09:03:51.094Z,25.76
2022-07-29T09:06:21.979Z,25.53
2022-07-29T09:09:08.799Z,25.83
2022-07-29T09:11:36.241Z,25.74
2022-07-29T09:14:10.443Z,25.99
2022-07-29T09:16:57.765Z,26.23
2022-07-29T09:19:31.063Z,25.66
2022-07-29T09:22:03.013Z,25.72
2022-07-29T09:24:45.288Z,25.92
2022-07-29T09:27:23.257Z,25.73
2022-07-29T09:30:08.066Z,25.72
2022-07-29T09:33:01.404Z,25.78
2022-07-29T09:35:31.801Z,26.27
2022-07-29T09:38:01.673Z,26.71
2022-07-29T09:40:29.354Z,27.29
2022-07-29T09:43:10.133Z,26.79
2022-07-29T09:45:37.383Z,27.08
2022-07-29T09:48:24.318Z,27.09
2022-07-29T09:50:52.205Z,26.79
2022-07-29T09:53:38.934Z,26.67
2022-07-29T09:56:08.860Z,26.84
2022-07-29T09:58:36.593Z,26.29
2022-07-29T10:01:03.900Z,26.82
2022-07-29T10:03:30.903Z,27.36
2022-07-29T10:06:12.699Z,27.21
2022-07-29T10:08:39.834Z,27.43
2022-07-29T10:11:16.436Z,27.18
2022-07-29T10:13:45.325Z,27.19
2022-07-29T10:16:13.898Z,27.13
2022-07-29T10:18:43.402Z,27.34
2022-07-29T10:21:10.964Z,27.18
2022-07-29T10:23:46.216Z,27.17
2022-07-29T10:26:14.247Z,26.75
2022-07-29T10:28:43.940Z,27.10
2022-07-29T10:31:28.528Z,27.20
2022-07-29T10:34:31.728Z,27.72
2022-07-29T10:37:21.187Z,28.16
2022-07-29T10:40:01.782Z,27.80
2022-07-29T10:42:34.347Z,28.41
2022-07-29T10:45:04.784Z,27.95
2022-07-29T10:47:32.216Z,27.60
2022-07-29T10:50:06.036Z,27.14
2022-07-29T10:52:51.315Z,27.15
2022-07-29T10:55:38.170Z,28.01
2022-07-29T10:58:43.405Z,28.53
2022-07-29T11:01:37.072Z,27.86
2022-07-29T11:04:04.968Z,27.28
2022-07-29T11:07:07.056Z,28.13
2022-07-29T11:09:37.678Z,28.23
2022-07-29T11:12:37.517Z,27.59
2022-07-29T11:15:09.144Z,27.34
2022-07-29T11:17:54.437Z,27.29
2022-07-29T11:20:39.429Z,28.07
2022-07-29T11:26:23.417Z,28.71
2022-07-29T11:29:16.900Z,28.96
2022-07-29T11:31:51.182Z,28.98
2022-07-29T11:34:28.067Z,28.45
2022-07-29T11:37:08.877Z,27.72
2022-07-29T11:39:39.335Z,27.73
2022-07-29T11:42:28.844Z,27.38
2022-07-29T11:45:41.494Z,27.51
2022-07-29T11:48:03.438Z,27.42
2022-07-29T11:50:36.006Z,27.39
2022-07-29T11:53:12.186Z,27.09
2022-07-29T11:55:51.571Z,26.70
2022-07-29T11:58:29.343Z,27.12
2022-07-29T12:00:57.753Z,27.20
2022-07-29T12:03:32.765Z,26.96
2022-07-29T12:06:23.366Z,26.48
2022-07-29T12:08:50.381Z,26.54
2022-07-29T12:11:21.805Z,26.96
2022-07-29T12:13:52.556Z,27.00
2022-07-29T12:16:25.330Z,27.38
2022-07-29T12:19:02.974Z,27.34
2022-07-29T12:21:52.374Z,27.10
2022-07-29T12:24:23.600Z,27.36
2022-07-29T12:26:58.584Z,27.85
2022-07-29T12:29:34.485Z,27.85
2022-07-29T12:32:04.966Z,27.62
2022-07-29T12:34:32.901Z,27.79
2022-07-29T12:36:59.948Z,27.88
2022-07-29T12:39:27.344Z,27.85
2022-07-29T12:42:03.884Z,27.60
2022-07-29T12:44:50.277Z,27.58
2022-07-29T12:47:19.151Z,27.66
2022-07-29T12:49:48.959Z,27.54
2022-07-29T12:52:29.312Z,27.24
2022-07-29T12:54:56.447Z,27.30
2022-07-29T12:57:23.492Z,27.28
2022-07-29T13:00:12.707Z,27.07
2022-07-29T13:02:41.315Z,26.85
2022-07-29T13:05:09.932Z,27.06
2022-07-29T13:07:54.227Z,26.86
2022-07-29T13:10:24.994Z,26.91
2022-07-29T13:13:08.329Z,26.91
2022-07-29T13:15:36.038Z,27.37
2022-07-29T13:18:02.955Z,27.20
2022-07-29T13:20:30.909Z,27.26
2022-07-29T13:23:01.473Z,27.19
2022-07-29T13:25:31.298Z,27.26
2022-07-29T13:27:59.120Z,27.07
2022-07-29T13:30:26.889Z,26.95
2022-07-29T13:32:53.895Z,27.25
2022-07-29T13:35:21.117Z,26.93
2022-07-29T13:37:48.306Z,26.97
2022-07-29T13:40:18.640Z,26.72
2022-07-29T13:42:45.731Z,26.83
2022-07-29T13:45:13.913Z,26.92
2022-07-29T13:47:49.492Z,26.98
2022-07-29T13:50:16.490Z,26.90
2022-07-29T13:52:43.386Z,27.07
2022-07-29T13:55:21.281Z,27.02
2022-07-29T13:57:54.922Z,27.02
2022-07-29T14:00:22.119Z,27.00
2022-07-29T14:02:49.538Z,27.07
2022-07-29T14:05:16.465Z,26.78
2022-07-29T14:07:43.351Z,26.87
2022-07-29T14:10:11.170Z,26.88
2022-07-29T14:12:57.510Z,26.94
2022-07-29T14:15:24.602Z,26.77
2022-07-29T14:17:51.587Z,27.05
2022-07-29T14:20:18.565Z,27.22
2022-07-29T14:22:45.828Z,26.86
2022-07-29T14:25:14.722Z,27.01
2022-07-29T14:28:02.570Z,27.21
2022-07-29T14:30:29.486Z,26.93
2022-07-29T14:32:56.293Z,27.03
2022-07-29T14:35:23.191Z,26.97
2022-07-29T14:37:49.983Z,26.88
2022-07-29T14:40:17.034Z,26.87
2022-07-29T14:42:43.900Z,26.78
2022-07-29T14:45:11.652Z,26.64
2022-07-29T14:47:39.401Z,26.70
2022-07-29T14:50:07.588Z,26.80
2022-07-29T14:52:37.122Z,26.87
2022-07-29T14:55:05.357Z,26.37
2022-07-29T14:57:43.332Z,26.55
2022-07-29T15:00:11.151Z,26.65
2022-07-29T15:03:00.488Z,26.47
2022-07-29T15:05:25.448Z,26.41
2022-07-29T15:07:56.046Z,26.23
2022-07-29T15:10:25.701Z,26.44
2022-07-29T15:12:54.936Z,26.22
2022-07-29T15:15:24.324Z,26.23
2022-07-29T15:17:54.110Z,25.97
2022-07-29T15:20:23.937Z,25.92
2022-07-29T15:22:50.943Z,25.79
2022-07-29T15:25:17.808Z,25.78
2022-07-29T15:27:48.931Z,25.89
2022-07-29T15:30:32.981Z,26.00
2022-07-29T15:33:02.000Z,25.84
2022-07-29T15:35:28.951Z,25.89
2022-07-29T15:38:03.421Z,25.79
2022-07-29T15:40:31.430Z,25.72
2022-07-29T15:42:58.288Z,25.63
2022-07-29T15:45:41.696Z,25.68
2022-07-29T15:48:15.696Z,25.50
2022-07-29T15:50:47.193Z,25.29
2022-07-29T15:53:23.390Z,25.52
2022-07-29T15:56:00.761Z,25.06
2022-07-29T15:59:06.337Z,25.35
2022-07-29T16:01:33.335Z,25.05
2022-07-29T16:04:00.289Z,24.85
2022-07-29T16:06:47.750Z,24.83
2022-07-29T16:09:15.782Z,24.83
2022-07-29T16:11:54.195Z,24.67
2022-07-29T16:14:21.285Z,24.61
2022-07-29T16:16:48.903Z,24.65
2022-07-29T16:19:19.008Z,24.59
2022-07-29T16:21:45.842Z,24.61
2022-07-29T16:24:29.033Z,24.65
2022-07-29T16:26:57.469Z,24.58
2022-07-29T16:29:26.979Z,24.58
2022-07-29T16:31:54.085Z,24.54
2022-07-29T16:34:31.112Z,24.54
2022-07-29T16:36:58.115Z,24.41
2022-07-29T16:39:25.097Z,24.31
2022-07-29T16:41:52.086Z,24.30
2022-07-29T16:44:18.954Z,24.18
2022-07-29T16:46:46.468Z,24.04
2022-07-29T16:49:19.210Z,24.00
2022-07-29T16:51:46.688Z,24.07
2022-07-29T16:54:13.810Z,24.04
2022-07-29T16:56:40.790Z,23.89
2022-07-29T16:59:26.129Z,23.97
2022-07-29T17:01:53.131Z,23.79
2022-07-29T17:04:20.161Z,23.71
2022-07-29T17:06:49.766Z,23.73
2022-07-29T17:09:56.371Z,23.72
2022-07-29T17:12:25.061Z,23.55
2022-07-29T17:14:51.890Z,23.47
2022-07-29T17:17:20.982Z,23.37
2022-07-29T17:20:07.199Z,23.30
2022-07-29T17:22:34.250Z,23.24
2022-07-29T17:25:01.226Z,23.14
2022-07-29T17:27:34.425Z,23.10
2022-07-29T17:30:02.103Z,23.13
2022-07-29T17:32:28.938Z,23.08
2022-07-29T17:34:55.862Z,23.05
2022-07-29T17:37:23.002Z,22.88
2022-07-29T17:39:49.948Z,22.90
2022-07-29T17:42:16.819Z,22.82
2022-07-29T17:44:44.500Z,22.75
2022-07-29T17:47:16.293Z,22.73
2022-07-29T17:49:44.983Z,22.65
2022-07-29T17:52:11.836Z,22.57
2022-07-29T17:54:38.827Z,22.50
2022-07-29T17:57:05.875Z,22.49
2022-07-29T17:59:32.942Z,22.23
2022-07-29T18:01:59.800Z,22.15
2022-07-29T18:04:26.721Z,22.12
2022-07-29T18:06:53.594Z,21.92
2022-07-29T18:09:23.345Z,21.78
2022-07-29T18:11:51.475Z,21.85
2022-07-29T18:14:18.321Z,21.75
2022-07-29T18:16:45.331Z,21.74
2022-07-29T18:19:28.581Z,21.68
2022-07-29T18:21:58.228Z,21.73
2022-07-29T18:24:27.337Z,21.67
2022-07-29T18:26:54.373Z,21.51
2022-07-29T18:29:21.663Z,21.52
2022-07-29T18:31:48.581Z,21.46
2022-07-29T18:34:15.665Z,21.46
2022-07-29T18:36:42.462Z,21.31
2022-07-29T18:39:09.418Z,21.24
2022-07-29T18:41:50.037Z,21.21
2022-07-29T18:44:22.007Z,21.16
2022-07-29T18:46:50.715Z,21.24
2022-07-29T18:49:17.769Z,20.98
2022-07-29T18:51:44.942Z,20.82
2022-07-29T18:54:11.924Z,20.78
2022-07-29T18:56:42.003Z,20.68
2022-07-29T18:59:08.960Z,20.81
2022-07-29T19:01:36.014Z,20.66
2022-07-29T19:04:03.215Z,20.58
2022-07-29T19:06:30.103Z,20.65
2022-07-29T19:08:56.988Z,20.52
2022-07-29T19:11:23.805Z,20.50
2022-07-29T19:13:53.640Z,20.58
2022-07-29T19:16:20.523Z,20.50
2022-07-29T19:18:47.422Z,20.41
2022-07-29T19:21:14.283Z,20.35
2022-07-29T19:24:01.907Z,20.30
2022-07-29T19:26:29.523Z,20.22
2022-07-29T19:28:56.431Z,20.21
2022-07-29T19:31:23.454Z,20.00
2022-07-29T19:33:50.889Z,20.15
2022-07-29T19:36:17.883Z,19.98
2022-07-29T19:38:44.779Z,20.01
2022-07-29T19:41:30.412Z,19.86
2022-07-29T19:43:57.323Z,19.88
2022-07-29T19:46:24.868Z,19.89
2022-07-29T19:48:52.465Z,19.78
2022-07-29T19:51:19.299Z,19.80
2022-07-29T19:53:46.255Z,19.80
2022-07-29T19:56:13.089Z,19.70
2022-07-29T19:58:39.923Z,19.72
2022-07-29T20:01:10.497Z,19.65
2022-07-29T20:03:39.470Z,19.73
2022-07-29T20:06:09.254Z,19.60
2022-07-29T20:08:36.624Z,19.67
2022-07-29T20:11:06.532Z,19.68
2022-07-29T20:13:37.492Z,19.59
2022-07-29T20:16:20.816Z,19.69
2022-07-29T20:18:47.881Z,19.67
2022-07-29T20:21:14.755Z,19.56
2022-07-29T20:23:41.701Z,19.56
2022-07-29T20:26:09.718Z,19.47
2022-07-29T20:28:36.870Z,19.42
2022-07-29T20:31:12.694Z,19.44
2022-07-29T20:33:48.261Z,19.35
2022-07-29T20:36:15.332Z,19.22
2022-07-29T20:38:42.128Z,19.12
2022-07-29T20:41:10.393Z,19.10
2022-07-29T20:43:39.935Z,19.06
2022-07-29T20:46:12.461Z,19.05
2022-07-29T20:48:42.212Z,19.05
2022-07-29T20:51:09.325Z,19.01
2022-07-29T20:53:38.739Z,18.83
2022-07-29T20:56:06.724Z,18.79
2022-07-29T20:58:34.365Z,18.87
2022-07-29T21:01:01.946Z,18.84
2022-07-29T21:03:29.228Z,18.80
2022-07-29T21:06:16.389Z,18.76
2022-07-29T21:08:43.658Z,18.75
2022-07-29T21:11:10.496Z,18.71
2022-07-29T21:13:37.537Z,18.69
2022-07-29T21:16:09.682Z,18.65
2022-07-29T21:18:39.654Z,18.63
2022-07-29T21:21:09.117Z,18.64
2022-07-29T21:23:36.007Z,18.63
2022-07-29T21:26:03.293Z,18.62
2022-07-29T21:28:38.615Z,18.53
2022-07-29T21:31:14.063Z,18.57
2022-07-29T21:33:42.999Z,18.47
2022-07-29T21:36:47.911Z,18.60
2022-07-29T21:39:15.356Z,18.55
2022-07-29T21:41:44.467Z,18.42
2022-07-29T21:44:13.477Z,18.51
2022-07-29T21:46:40.451Z,18.43
2022-07-29T21:49:10.469Z,18.45
2022-07-29T21:51:37.320Z,18.44
2022-07-29T21:54:04.508Z,18.30
2022-07-29T21:56:33.813Z,18.15
2022-07-29T21:59:00.730Z,18.31
2022-07-29T22:01:48.500Z,18.28
2022-07-29T22:04:15.909Z,18.02
2022-07-29T22:06:42.826Z,18.09
2022-07-29T22:09:09.771Z,18.13
2022-07-29T22:11:36.705Z,18.07
2022-07-29T22:14:05.482Z,17.95
2022-07-29T22:16:32.477Z,18.00
2022-07-29T22:18:59.417Z,17.96
2022-07-29T22:21:31.434Z,17.90
2022-07-29T22:23:58.468Z,17.93
2022-07-29T22:26:25.295Z,17.87
2022-07-29T22:28:52.323Z,17.91
2022-07-29T22:31:19.512Z,17.85
2022-07-29T22:33:50.447Z,17.85
2022-07-29T22:36:18.463Z,17.79
2022-07-29T22:38:49.105Z,17.70
2022-07-29T22:41:18.601Z,17.66
2022-07-29T22:43:45.430Z,17.60
2022-07-29T22:46:12.327Z,17.62
2022-07-29T22:48:39.261Z,17.69
2022-07-29T22:51:06.272Z,17.64
2022-07-29T22:53:33.072Z,17.63
2022-07-29T22:55:59.963Z,17.63
2022-07-29T22:58:26.910Z,17.66
2022-07-29T23:00:53.890Z,17.65
2022-07-29T23:03:21.777Z,17.53
2022-07-29T23:05:48.908Z,17.50
2022-07-29T23:08:15.740Z,17.43
2022-07-29T23:10:42.994Z,17.44
2022-07-29T23:13:10.464Z,17.35
2022-07-29T23:15:37.798Z,17.38
2022-07-29T23:18:04.676Z,17.39
2022-07-29T23:20:31.676Z,17.25
2022-07-29T23:22:58.643Z,17.18
2022-07-29T23:25:25.643Z,17.17
2022-07-29T23:27:52.579Z,17.12
2022-07-29T23:30:19.455Z,17.02
2022-07-29T23:32:46.558Z,17.23
2022-07-29T23:35:13.696Z,17.14
2022-07-29T23:37:40.620Z,16.86
2022-07-29T23:40:30.554Z,16.99
2022-07-29T23:42:57.445Z,16.96
2022-07-29T23:45:42.462Z,17.02
2022-07-29T23:48:11.195Z,17.03
2022-07-29T23:50:38.008Z,16.98
2022-07-29T23:53:04.857Z,16.93
2022-07-29T23:55:36.331Z,16.94
2022-07-29T23:58:05.232Z,16.99
